Terminal Aerodrome Forecast
Issued by NWS Upton, NY

Home | Current Version | Previous Version | Text Only | Print | Product List | Glossary On
Versions: 1 2 3 4 5 6 7 8 9 10 11 12 13 14 15 16 17 18 19 20 21 22 23 24
000
FTUS41 KOKX 281900 AAA
TAFBDR
TAF AMD
KBDR 281933Z 2820/0118 23007KT P6SM SKC
     FM282300 VRB03KT P6SM SCT250
     FM010900 00000KT P6SM BKN100
     FM011200 00000KT P6SM OVC070
     FM011500 VRB03KT 4SM -SN SCT025 OVC040
     FM011700 17005KT 2SM -SN OVC015=

USA.gov is the U.S. government's official web portal to all federal, state and local government web resources and services.